createdAt,value
2018-12-22T00:01:25.972Z,10.30
2018-12-22T00:04:04.816Z,10.30
2018-12-22T00:06:40.051Z,10.40
2018-12-22T00:09:19.284Z,10.40
2018-12-22T00:11:58.510Z,10.40
2018-12-22T00:14:33.835Z,10.30
2018-12-22T00:17:12.756Z,10.30
2018-12-22T00:19:51.123Z,10.40
2018-12-22T00:25:21.106Z,10.40
2018-12-22T00:27:56.188Z,10.30
2018-12-22T00:30:31.473Z,10.40
2018-12-22T00:33:06.841Z,10.40
2018-12-22T00:35:46.097Z,10.30
2018-12-22T00:38:28.666Z,10.30
2018-12-22T00:41:06.153Z,10.30
2018-12-22T00:43:45.338Z,10.40
2018-12-22T00:46:24.417Z,10.40
2018-12-22T00:49:04.025Z,10.40
2018-12-22T00:51:38.881Z,10.40
2018-12-22T00:54:18.166Z,10.40
2018-12-22T00:56:57.032Z,10.40
2018-12-22T00:59:26.701Z,10.30
2018-12-22T01:02:01.249Z,10.30
2018-12-22T01:04:38.656Z,10.30
2018-12-22T01:07:13.384Z,10.40
2018-12-22T01:09:48.657Z,10.40
2018-12-22T01:12:26.777Z,10.30
2018-12-22T01:15:04.205Z,10.30
2018-12-22T01:17:38.808Z,10.40
2018-12-22T01:20:16.292Z,10.30
2018-12-22T01:22:55.343Z,10.30
2018-12-22T01:25:33.911Z,10.30
2018-12-22T01:28:13.078Z,10.40
2018-12-22T01:30:48.140Z,10.50
2018-12-22T01:33:23.557Z,10.40
2018-12-22T01:36:02.929Z,10.30
2018-12-22T01:38:38.090Z,10.40
2018-12-22T01:41:13.168Z,10.40
2018-12-22T01:43:50.545Z,10.40
2018-12-22T01:46:27.735Z,10.40
2018-12-22T01:49:06.826Z,10.50
2018-12-22T01:51:42.089Z,10.50
2018-12-22T01:54:19.225Z,10.50
2018-12-22T01:56:54.517Z,10.50
2018-12-22T01:59:33.569Z,10.50
2018-12-22T02:02:08.725Z,10.50
2018-12-22T02:04:45.951Z,10.50
2018-12-22T02:07:21.323Z,10.50
2018-12-22T02:09:56.644Z,10.50
2018-12-22T02:12:35.975Z,10.50
2018-12-22T02:15:13.714Z,10.40
2018-12-22T02:17:48.992Z,10.40
2018-12-22T02:20:24.056Z,10.40
2018-12-22T02:22:59.347Z,10.40
2018-12-22T02:25:35.843Z,10.50
2018-12-22T02:28:13.276Z,10.50
2018-12-22T02:30:52.532Z,10.50
2018-12-22T02:33:31.832Z,10.50
2018-12-22T02:36:11.056Z,10.50
2018-12-22T02:39:02.904Z,10.50
2018-12-22T02:41:39.382Z,10.50
2018-12-22T02:44:18.556Z,10.50
2018-12-22T02:46:53.717Z,10.40
2018-12-22T02:49:32.864Z,10.50
2018-12-22T02:52:08.284Z,10.50
2018-12-22T02:54:47.168Z,10.50
2018-12-22T02:57:22.263Z,10.50
2018-12-22T02:59:57.529Z,10.40
2018-12-22T03:02:36.754Z,10.40
2018-12-22T03:05:16.013Z,10.40
2018-12-22T03:07:54.997Z,10.40
2018-12-22T03:10:32.467Z,10.40
2018-12-22T03:13:11.598Z,10.40
2018-12-22T03:15:50.541Z,10.40
2018-12-22T03:18:29.645Z,10.30
2018-12-22T03:21:04.791Z,10.30
2018-12-22T03:23:40.012Z,10.20
2018-12-22T03:26:17.338Z,10.10
2018-12-22T03:28:54.621Z,10.00
2018-12-22T03:31:32.045Z,10.10
2018-12-22T03:34:11.079Z,10.00
2018-12-22T03:36:50.256Z,9.90
2018-12-22T03:39:27.464Z,9.90
2018-12-22T03:42:07.027Z,10.00
2018-12-22T03:44:41.774Z,9.90
2018-12-22T03:47:20.871Z,9.80
2018-12-22T03:49:56.301Z,9.80
2018-12-22T03:52:35.517Z,9.80
2018-12-22T03:55:14.673Z,9.80
2018-12-22T03:57:53.885Z,9.70
2018-12-22T04:00:29.996Z,9.80
2018-12-22T04:03:09.130Z,9.80
2018-12-22T04:05:48.430Z,9.70
2018-12-22T04:08:25.814Z,9.70
2018-12-22T04:11:02.843Z,9.80
2018-12-22T04:13:40.020Z,9.80
2018-12-22T04:16:17.487Z,9.80
2018-12-22T04:18:56.942Z,9.80
2018-12-22T04:21:36.089Z,9.80
2018-12-22T04:24:15.479Z,9.80
2018-12-22T04:26:50.050Z,9.80
2018-12-22T04:29:33.797Z,9.80
2018-12-22T04:32:10.266Z,9.80
2018-12-22T04:34:48.626Z,9.80
2018-12-22T04:37:17.747Z,9.80
2018-12-22T04:39:57.090Z,9.90
2018-12-22T04:42:32.378Z,9.90
2018-12-22T04:45:11.459Z,9.90
2018-12-22T04:47:48.841Z,9.80
2018-12-22T04:50:26.318Z,9.90
2018-12-22T04:52:55.677Z,9.90
2018-12-22T04:55:34.562Z,9.90
2018-12-22T04:58:13.740Z,9.90
2018-12-22T05:00:48.987Z,9.90
2018-12-22T05:03:24.043Z,10.00
2018-12-22T05:05:59.330Z,10.10
2018-12-22T05:08:34.530Z,10.00
2018-12-22T05:11:11.767Z,10.00
2018-12-22T05:13:46.954Z,10.20
2018-12-22T05:16:29.910Z,10.20
2018-12-22T05:19:04.633Z,10.20
2018-12-22T05:21:46.723Z,10.30
2018-12-22T05:24:26.062Z,10.40
2018-12-22T05:27:01.444Z,10.40
2018-12-22T05:29:34.362Z,10.50
2018-12-22T05:32:09.266Z,10.40
2018-12-22T05:34:44.458Z,10.50
2018-12-22T05:37:23.765Z,10.60
2018-12-22T05:40:03.554Z,10.70
2018-12-22T05:42:42.304Z,10.70
2018-12-22T05:45:17.921Z,10.80
2018-12-22T05:47:56.887Z,10.70
2018-12-22T05:50:35.055Z,10.70
2018-12-22T05:53:05.854Z,10.70
2018-12-22T05:55:45.227Z,10.70
2018-12-22T05:58:24.298Z,10.70
2018-12-22T06:00:59.649Z,10.80
2018-12-22T06:03:36.945Z,10.70
2018-12-22T06:06:16.161Z,10.70
2018-12-22T06:08:55.430Z,10.70
2018-12-22T06:11:32.891Z,10.70
2018-12-22T06:14:11.887Z,10.80
2018-12-22T06:16:49.408Z,10.80
2018-12-22T06:19:28.757Z,10.90
2018-12-22T06:21:57.943Z,10.90
2018-12-22T06:24:34.470Z,10.90
2018-12-22T06:27:09.821Z,10.80
2018-12-22T06:29:41.575Z,10.90
2018-12-22T06:32:20.590Z,10.90
2018-12-22T06:34:59.709Z,10.90
2018-12-22T06:37:38.613Z,11.00
2018-12-22T06:40:18.693Z,10.90
2018-12-22T06:42:57.933Z,11.00
2018-12-22T06:45:27.074Z,11.00
2018-12-22T06:48:05.645Z,11.00
2018-12-22T06:50:45.049Z,11.00
2018-12-22T06:53:20.321Z,10.90
2018-12-22T06:55:59.696Z,10.80
2018-12-22T06:58:32.353Z,10.90
2018-12-22T07:01:07.206Z,10.90
2018-12-22T07:03:42.503Z,10.90
2018-12-22T07:06:21.702Z,10.90
2018-12-22T07:08:50.870Z,10.90
2018-12-22T07:11:23.618Z,11.00
2018-12-22T07:14:02.275Z,11.00
2018-12-22T07:16:42.081Z,11.00
2018-12-22T07:19:17.414Z,10.90
2018-12-22T07:21:56.552Z,10.90
2018-12-22T07:24:31.663Z,10.90
2018-12-22T07:27:10.947Z,10.90
2018-12-22T07:29:50.209Z,11.00
2018-12-22T07:32:27.469Z,11.10
2018-12-22T07:35:05.418Z,11.00
2018-12-22T07:37:44.297Z,11.10
2018-12-22T07:40:23.525Z,11.10
2018-12-22T07:42:58.513Z,11.10
2018-12-22T07:45:33.902Z,11.10
2018-12-22T07:48:11.392Z,11.20
2018-12-22T07:50:46.206Z,11.30
2018-12-22T07:53:21.193Z,11.20
2018-12-22T07:55:57.439Z,11.20
2018-12-22T07:58:36.163Z,11.30
2018-12-22T08:01:11.248Z,11.20
2018-12-22T08:03:48.393Z,11.20
2018-12-22T08:06:24.699Z,11.20
2018-12-22T08:08:59.989Z,11.20
2018-12-22T08:11:36.926Z,11.30
2018-12-22T08:14:15.742Z,11.20
2018-12-22T08:16:44.889Z,11.20
2018-12-22T08:19:20.097Z,11.20
2018-12-22T08:21:49.229Z,11.30
2018-12-22T08:24:24.117Z,11.30
2018-12-22T08:27:03.448Z,11.30
2018-12-22T08:29:38.785Z,11.20
2018-12-22T08:32:17.134Z,11.20
2018-12-22T08:34:56.201Z,11.20
2018-12-22T08:37:35.627Z,11.20
2018-12-22T08:40:14.598Z,11.20
2018-12-22T08:42:53.765Z,11.30
2018-12-22T08:45:26.634Z,11.40
2018-12-22T08:48:04.407Z,11.40
2018-12-22T08:50:39.864Z,11.40
2018-12-22T08:53:18.975Z,11.40
2018-12-22T08:55:58.119Z,11.50
2018-12-22T08:58:37.488Z,11.50
2018-12-22T09:01:14.975Z,11.50
2018-12-22T09:03:50.133Z,11.50
2018-12-22T09:06:27.417Z,11.50
2018-12-22T09:09:02.685Z,11.60
2018-12-22T09:11:41.882Z,11.60
2018-12-22T09:14:17.102Z,11.60
2018-12-22T09:16:56.270Z,11.70
2018-12-22T09:19:37.939Z,11.60
2018-12-22T09:22:13.116Z,11.60
2018-12-22T09:24:48.412Z,11.60
2018-12-22T09:27:23.307Z,11.60
2018-12-22T09:30:02.912Z,11.50
2018-12-22T09:32:40.402Z,11.40
2018-12-22T09:35:19.864Z,11.40
2018-12-22T09:37:54.517Z,11.40
2018-12-22T09:40:33.957Z,11.40
2018-12-22T09:43:13.082Z,11.30
2018-12-22T09:45:43.752Z,11.10
2018-12-22T09:48:19.199Z,11.00
2018-12-22T09:50:58.736Z,10.90
2018-12-22T09:53:36.284Z,11.00
2018-12-22T09:56:15.370Z,11.00
2018-12-22T10:01:20.895Z,11.30
2018-12-22T10:03:56.614Z,11.40
2018-12-22T10:06:35.821Z,11.40
2018-12-22T10:09:15.937Z,11.50
2018-12-22T10:11:50.657Z,11.60
2018-12-22T10:14:23.753Z,11.50
2018-12-22T10:17:04.867Z,11.60
2018-12-22T10:19:39.644Z,11.60
2018-12-22T10:22:15.902Z,11.70
2018-12-22T10:24:55.069Z,11.70
2018-12-22T10:27:34.051Z,11.70
2018-12-22T10:30:13.061Z,11.70
2018-12-22T10:32:52.197Z,11.60
2018-12-22T10:35:29.093Z,11.50
2018-12-22T10:38:07.712Z,11.40
2018-12-22T10:40:43.057Z,11.50
2018-12-22T10:43:21.980Z,11.40
2018-12-22T10:46:01.693Z,11.40
2018-12-22T10:48:37.205Z,11.30
2018-12-22T10:51:15.123Z,11.40
2018-12-22T10:53:53.987Z,11.30
2018-12-22T10:56:33.260Z,11.30
2018-12-22T10:59:12.823Z,11.20
2018-12-22T11:01:47.446Z,11.10
2018-12-22T11:04:22.799Z,11.00
2018-12-22T11:06:52.873Z,11.00
2018-12-22T11:09:27.577Z,11.00
2018-12-22T11:12:07.073Z,11.00
2018-12-22T11:14:42.354Z,11.00
2018-12-22T11:17:17.670Z,11.00
2018-12-22T11:19:57.108Z,10.90
2018-12-22T11:22:36.435Z,11.00
2018-12-22T11:25:21.206Z,11.00
2018-12-22T11:27:53.725Z,11.00
2018-12-22T11:30:34.775Z,11.00
2018-12-22T11:33:13.546Z,10.90
2018-12-22T11:35:52.761Z,10.90
2018-12-22T11:38:34.570Z,10.70
2018-12-22T11:41:09.854Z,10.60
2018-12-22T11:43:48.996Z,10.30
2018-12-22T11:46:28.338Z,10.10
2018-12-22T11:49:09.546Z,10.00
2018-12-22T11:51:44.957Z,9.90
2018-12-22T11:54:24.148Z,9.80
2018-12-22T11:57:03.299Z,9.60
2018-12-22T11:59:41.726Z,9.50
2018-12-22T12:02:11.160Z,9.30
2018-12-22T12:04:47.129Z,9.20
2018-12-22T12:07:26.905Z,9.10
2018-12-22T12:10:02.539Z,9.10
2018-12-22T12:12:42.078Z,9.00
2018-12-22T12:15:22.952Z,9.00
2018-12-22T12:20:13.403Z,8.70
2018-12-22T12:22:48.138Z,8.60
2018-12-22T12:25:23.443Z,8.60
2018-12-22T12:28:00.911Z,8.70
2018-12-22T12:30:31.986Z,8.70
2018-12-22T12:33:03.308Z,8.70
2018-12-22T12:35:38.486Z,8.80
2018-12-22T12:38:15.642Z,8.80
2018-12-22T12:40:53.214Z,9.00
2018-12-22T12:43:26.219Z,9.10
2018-12-22T12:46:05.384Z,9.10
2018-12-22T12:48:40.470Z,9.20
2018-12-22T12:51:18.343Z,9.20
2018-12-22T12:53:53.475Z,9.10
2018-12-22T12:56:30.853Z,9.10
2018-12-22T12:59:13.356Z,9.10
2018-12-22T13:01:50.598Z,9.20
2018-12-22T13:04:25.611Z,9.20
2018-12-22T13:07:00.669Z,9.30
2018-12-22T13:09:39.945Z,9.30
2018-12-22T13:12:17.109Z,9.40
2018-12-22T13:14:52.692Z,9.30
2018-12-22T13:17:32.007Z,9.30
2018-12-22T13:20:07.747Z,9.30
2018-12-22T13:22:46.997Z,9.40
2018-12-22T13:25:26.502Z,9.40
2018-12-22T13:28:01.530Z,9.50
2018-12-22T13:30:40.593Z,9.50
2018-12-22T13:33:16.064Z,9.50
2018-12-22T13:35:48.737Z,9.50
2018-12-22T13:38:27.905Z,9.50
2018-12-22T13:41:10.492Z,9.50
2018-12-22T13:43:47.406Z,9.50
2018-12-22T13:46:22.850Z,9.60
2018-12-22T13:48:59.794Z,9.60
2018-12-22T13:51:42.353Z,9.60
2018-12-22T13:54:22.227Z,9.60
2018-12-22T13:56:57.451Z,9.70
2018-12-22T13:59:36.606Z,9.60
2018-12-22T14:02:18.295Z,9.60
2018-12-22T14:05:00.407Z,9.60
2018-12-22T14:07:39.737Z,9.50
2018-12-22T14:10:20.367Z,9.40
2018-12-22T14:12:53.858Z,9.30
2018-12-22T14:15:29.504Z,9.30
2018-12-22T14:22:14.304Z,9.30
2018-12-22T14:25:06.055Z,9.30
2018-12-22T14:27:59.241Z,9.30
2018-12-22T14:30:40.474Z,9.20
2018-12-22T14:33:24.144Z,9.20
2018-12-22T14:36:08.306Z,9.20
2018-12-22T14:41:43.215Z,8.30
2018-12-22T14:44:31.872Z,7.90
2018-12-22T14:47:12.855Z,7.70
2018-12-22T14:49:58.721Z,7.70
2018-12-22T14:52:51.255Z,7.60
2018-12-22T14:55:30.719Z,7.60
2018-12-22T14:58:15.235Z,7.50
2018-12-22T15:00:58.248Z,7.50
2018-12-22T15:03:40.333Z,7.50
2018-12-22T15:06:25.809Z,7.50
2018-12-22T15:09:13.777Z,7.30
2018-12-22T15:11:59.880Z,7.30
2018-12-22T15:14:43.607Z,7.20
2018-12-22T15:17:28.208Z,7.20
2018-12-22T15:20:11.387Z,7.20
2018-12-22T15:22:55.139Z,7.20
2018-12-22T15:25:40.166Z,7.20
2018-12-22T15:28:23.447Z,7.20
2018-12-22T15:31:20.188Z,7.20
2018-12-22T15:34:10.233Z,7.10
2018-12-22T15:36:49.695Z,7.10
2018-12-22T15:39:39.665Z,7.10
2018-12-22T15:42:19.323Z,7.10
2018-12-22T15:44:57.826Z,7.10
2018-12-22T15:47:42.547Z,7.00
2018-12-22T15:50:26.428Z,7.00
2018-12-22T15:53:22.662Z,7.10
2018-12-22T15:56:03.649Z,7.10
2018-12-22T15:58:47.251Z,7.10
2018-12-22T16:01:29.999Z,7.20
2018-12-22T16:04:15.002Z,7.20
2018-12-22T16:06:56.325Z,7.30
2018-12-22T16:09:38.612Z,7.40
2018-12-22T16:12:23.592Z,7.40
2018-12-22T16:15:11.119Z,7.40
2018-12-22T16:17:51.927Z,7.40
2018-12-22T16:20:34.992Z,7.40
2018-12-22T16:23:13.174Z,7.40
2018-12-22T16:25:57.229Z,7.40
2018-12-22T16:28:51.257Z,7.40
2018-12-22T16:31:33.120Z,7.40
2018-12-22T16:34:15.124Z,7.50
2018-12-22T16:36:56.732Z,7.50
2018-12-22T16:39:40.623Z,7.40
2018-12-22T16:42:21.808Z,7.50
2018-12-22T16:45:02.991Z,7.50
2018-12-22T16:47:44.543Z,7.50
2018-12-22T16:50:28.143Z,7.50
2018-12-22T16:53:12.669Z,7.50
2018-12-22T16:55:55.093Z,7.50
2018-12-22T16:58:37.163Z,7.60
2018-12-22T17:01:24.284Z,7.60
2018-12-22T17:04:02.162Z,7.70
2018-12-22T17:06:42.316Z,7.80
2018-12-22T17:09:20.754Z,7.90
2018-12-22T17:11:56.886Z,7.90
2018-12-22T17:14:37.304Z,7.90
2018-12-22T17:17:19.355Z,7.90
2018-12-22T17:19:59.974Z,7.90
2018-12-22T17:22:46.775Z,7.90
2018-12-22T17:25:34.588Z,7.90
2018-12-22T17:28:14.569Z,7.90
2018-12-22T17:30:55.138Z,7.90
2018-12-22T17:33:36.905Z,7.90
2018-12-22T17:36:18.531Z,7.90
2018-12-22T17:39:00.073Z,7.90
2018-12-22T17:41:36.607Z,7.90
2018-12-22T17:44:15.523Z,7.90
2018-12-22T17:46:56.259Z,7.90
2018-12-22T17:49:35.460Z,7.90
2018-12-22T17:52:12.260Z,7.90
2018-12-22T17:54:52.360Z,7.90
2018-12-22T17:57:34.623Z,7.90
2018-12-22T18:00:16.039Z,7.90
2018-12-22T18:03:27.121Z,7.90
2018-12-22T18:06:04.938Z,7.90
2018-12-22T18:08:41.529Z,7.90
2018-12-22T18:11:18.130Z,7.90
2018-12-22T18:13:58.596Z,7.90
2018-12-22T18:16:36.155Z,8.00
2018-12-22T18:19:15.484Z,8.00
2018-12-22T18:21:57.682Z,8.00
2018-12-22T18:24:33.565Z,8.10
2018-12-22T18:27:17.299Z,8.10
2018-12-22T18:29:54.514Z,8.10
2018-12-22T18:32:32.646Z,8.00
2018-12-22T18:35:18.111Z,8.10
2018-12-22T18:37:55.612Z,8.10
2018-12-22T18:40:37.591Z,8.10
2018-12-22T18:43:17.732Z,8.00
2018-12-22T18:45:55.546Z,8.10
2018-12-22T18:48:35.000Z,8.10
2018-12-22T18:51:16.061Z,8.00
2018-12-22T18:53:54.223Z,8.00
2018-12-22T18:56:40.324Z,8.00
2018-12-22T18:59:23.536Z,8.00
2018-12-22T19:02:04.435Z,8.00
2018-12-22T19:04:37.716Z,8.00
2018-12-22T19:07:13.422Z,8.00
2018-12-22T19:12:44.244Z,8.00
2018-12-22T19:15:19.745Z,7.90
2018-12-22T19:17:54.674Z,7.90
2018-12-22T19:20:35.367Z,7.90
2018-12-22T19:23:11.453Z,7.80
2018-12-22T19:25:50.808Z,7.80
2018-12-22T19:28:29.493Z,7.80
2018-12-22T19:31:04.920Z,7.80
2018-12-22T19:33:40.276Z,7.80
2018-12-22T19:36:16.588Z,7.90
2018-12-22T19:38:52.361Z,7.80
2018-12-22T19:41:30.890Z,7.80
2018-12-22T19:44:07.064Z,7.70
2018-12-22T19:46:41.027Z,7.80
2018-12-22T19:49:16.479Z,7.70
2018-12-22T19:51:58.630Z,7.60
2018-12-22T19:54:37.218Z,7.60
2018-12-22T19:57:12.375Z,7.60
2018-12-22T19:59:56.051Z,7.50
2018-12-22T20:02:32.030Z,7.50
2018-12-22T20:05:07.215Z,7.40
2018-12-22T20:07:42.105Z,7.40
2018-12-22T20:10:17.582Z,7.40
2018-12-22T20:12:56.531Z,7.40
2018-12-22T20:15:35.982Z,7.40
2018-12-22T20:18:11.625Z,7.40
2018-12-22T20:23:51.450Z,7.30
2018-12-22T20:26:28.929Z,7.40
2018-12-22T20:29:04.511Z,7.40
2018-12-22T20:31:39.946Z,7.30
2018-12-22T20:34:19.062Z,7.30
2018-12-22T20:36:54.425Z,7.30
2018-12-22T20:39:29.662Z,7.30
2018-12-22T20:42:02.407Z,7.30
2018-12-22T20:44:37.367Z,7.30
2018-12-22T20:47:12.178Z,7.20
2018-12-22T20:49:51.309Z,7.30
2018-12-22T20:52:30.967Z,7.30
2018-12-22T20:55:08.157Z,7.30
2018-12-22T20:57:37.366Z,7.20
2018-12-22T21:00:12.729Z,7.30
2018-12-22T21:02:48.362Z,7.20
2018-12-22T21:05:21.205Z,7.10
2018-12-22T21:07:58.208Z,7.10
2018-12-22T21:10:46.109Z,7.10
2018-12-22T21:13:15.590Z,7.00
2018-12-22T21:15:50.885Z,7.00
2018-12-22T21:18:25.875Z,7.00
2018-12-22T21:21:01.093Z,7.00
2018-12-22T21:23:40.530Z,7.00
2018-12-22T21:26:17.412Z,7.10
2018-12-22T21:28:52.260Z,7.00
2018-12-22T21:31:31.556Z,7.00
2018-12-22T21:34:07.319Z,6.90
2018-12-22T21:36:43.114Z,6.90
2018-12-22T21:39:12.230Z,6.90
2018-12-22T21:41:47.245Z,6.90
2018-12-22T21:44:26.691Z,7.00
2018-12-22T21:47:02.601Z,6.90
2018-12-22T21:49:38.938Z,7.00
2018-12-22T21:52:14.031Z,6.90
2018-12-22T21:54:55.605Z,7.00
2018-12-22T21:57:31.490Z,7.00
2018-12-22T22:00:07.270Z,7.10
2018-12-22T22:02:49.224Z,7.20
2018-12-22T22:05:23.768Z,7.10
2018-12-22T22:08:00.146Z,7.00
2018-12-22T22:10:47.737Z,6.90
2018-12-22T22:13:22.881Z,6.90
2018-12-22T22:16:00.277Z,6.90
2018-12-22T22:18:35.516Z,6.90
2018-12-22T22:21:11.207Z,6.90
2018-12-22T22:23:46.749Z,6.90
2018-12-22T22:26:25.353Z,6.90
2018-12-22T22:29:07.048Z,6.90
2018-12-22T22:31:41.813Z,6.90
2018-12-22T22:34:20.970Z,6.90
2018-12-22T22:37:00.389Z,6.80
2018-12-22T22:39:43.124Z,6.80
2018-12-22T22:42:18.074Z,6.80
2018-12-22T22:44:52.825Z,6.80
2018-12-22T22:47:28.020Z,6.80
2018-12-22T22:50:03.380Z,6.70
2018-12-22T22:52:38.297Z,6.80
2018-12-22T22:55:13.566Z,6.80
2018-12-22T22:57:55.342Z,6.70
2018-12-22T23:00:34.481Z,6.70
2018-12-22T23:03:13.390Z,6.70
2018-12-22T23:05:54.195Z,6.70
2018-12-22T23:08:28.768Z,6.70
2018-12-22T23:11:07.933Z,6.70
2018-12-22T23:13:44.197Z,6.70
2018-12-22T23:16:19.409Z,6.80
2018-12-22T23:18:54.876Z,6.70
2018-12-22T23:21:28.041Z,6.80
2018-12-22T23:24:08.401Z,6.80
2018-12-22T23:26:45.111Z,6.80
2018-12-22T23:29:20.056Z,6.90
2018-12-22T23:31:59.546Z,6.90
2018-12-22T23:34:34.891Z,6.90
2018-12-22T23:37:13.949Z,6.90
2018-12-22T23:39:43.069Z,6.90
2018-12-22T23:42:20.533Z,6.90
2018-12-22T23:44:55.957Z,7.00
2018-12-22T23:47:31.367Z,7.00
2018-12-22T23:50:10.694Z,6.90
2018-12-22T23:52:45.810Z,7.00
2018-12-22T23:55:27.276Z,7.00
2018-12-22T23:58:01.980Z,7.00
